sensor_id;sensor_type;location;lat;lon;timestamp;P1;durP1;ratioP1;P2;durP2;ratioP2
64915;SDS011;51427;-27.442;153.014;2024-02-23T00:01:09;4.30;;;1.70;;
64915;SDS011;51427;-27.442;153.014;2024-02-23T00:03:37;2.92;;;1.42;;
64915;SDS011;51427;-27.442;153.014;2024-02-23T00:06:04;2.22;;;1.58;;
64915;SDS011;51427;-27.442;153.014;2024-02-23T00:08:32;3.53;;;1.50;;
64915;SDS011;51427;-27.442;153.014;2024-02-23T00:10:59;6.53;;;1.75;;
64915;SDS011;51427;-27.442;153.014;2024-02-23T00:13:27;3.45;;;1.73;;
64915;SDS011;51427;-27.442;153.014;2024-02-23T00:15:54;3.97;;;1.80;;
64915;SDS011;51427;-27.442;153.014;2024-02-23T00:18:21;2.13;;;1.40;;
64915;SDS011;51427;-27.442;153.014;2024-02-23T00:20:48;3.60;;;1.70;;
64915;SDS011;51427;-27.442;153.014;2024-02-23T00:23:16;1.77;;;1.60;;
64915;SDS011;51427;-27.442;153.014;2024-02-23T00:25:44;5.95;;;1.98;;
64915;SDS011;51427;-27.442;153.014;2024-02-23T00:28:12;3.72;;;2.20;;
64915;SDS011;51427;-27.442;153.014;2024-02-23T00:30:39;5.43;;;1.63;;
64915;SDS011;51427;-27.442;153.014;2024-02-23T00:33:06;2.97;;;1.73;;
64915;SDS011;51427;-27.442;153.014;2024-02-23T00:35:35;3.28;;;1.52;;
64915;SDS011;51427;-27.442;153.014;2024-02-23T00:38:02;3.22;;;1.67;;
64915;SDS011;51427;-27.442;153.014;2024-02-23T00:40:30;3.00;;;1.77;;
64915;SDS011;51427;-27.442;153.014;2024-02-23T00:42:57;3.15;;;2.17;;
64915;SDS011;51427;-27.442;153.014;2024-02-23T00:45:26;4.97;;;1.60;;
64915;SDS011;51427;-27.442;153.014;2024-02-23T00:47:53;3.03;;;1.55;;
64915;SDS011;51427;-27.442;153.014;2024-02-23T00:50:23;2.78;;;1.70;;
64915;SDS011;51427;-27.442;153.014;2024-02-23T00:52:51;3.97;;;1.60;;
64915;SDS011;51427;-27.442;153.014;2024-02-23T00:55:19;2.20;;;1.60;;
64915;SDS011;51427;-27.442;153.014;2024-02-23T00:57:47;3.28;;;1.90;;
64915;SDS011;51427;-27.442;153.014;2024-02-23T01:00:14;3.17;;;1.92;;
64915;SDS011;51427;-27.442;153.014;2024-02-23T01:02:41;5.18;;;2.03;;
64915;SDS011;51427;-27.442;153.014;2024-02-23T01:05:09;4.85;;;2.28;;
64915;SDS011;51427;-27.442;153.014;2024-02-23T01:07:36;3.42;;;2.22;;
64915;SDS011;51427;-27.442;153.014;2024-02-23T01:10:03;4.63;;;2.00;;
64915;SDS011;51427;-27.442;153.014;2024-02-23T01:12:31;5.25;;;1.88;;
64915;SDS011;51427;-27.442;153.014;2024-02-23T01:14:58;4.85;;;1.92;;
64915;SDS011;51427;-27.442;153.014;2024-02-23T01:17:26;4.88;;;2.20;;
64915;SDS011;51427;-27.442;153.014;2024-02-23T01:19:53;2.97;;;1.98;;
64915;SDS011;51427;-27.442;153.014;2024-02-23T01:22:20;4.32;;;2.30;;
64915;SDS011;51427;-27.442;153.014;2024-02-23T01:24:48;5.15;;;2.47;;
64915;SDS011;51427;-27.442;153.014;2024-02-23T01:27:15;2.35;;;1.92;;
64915;SDS011;51427;-27.442;153.014;2024-02-23T01:29:44;2.70;;;2.30;;
64915;SDS011;51427;-27.442;153.014;2024-02-23T01:32:11;4.63;;;2.50;;
64915;SDS011;51427;-27.442;153.014;2024-02-23T01:34:38;2.85;;;1.90;;
64915;SDS011;51427;-27.442;153.014;2024-02-23T01:37:05;3.97;;;2.22;;
64915;SDS011;51427;-27.442;153.014;2024-02-23T01:39:33;4.75;;;2.13;;
64915;SDS011;51427;-27.442;153.014;2024-02-23T01:42:00;3.30;;;2.10;;
64915;SDS011;51427;-27.442;153.014;2024-02-23T01:44:28;5.45;;;2.42;;
64915;SDS011;51427;-27.442;153.014;2024-02-23T01:46:55;4.35;;;2.40;;
64915;SDS011;51427;-27.442;153.014;2024-02-23T01:49:22;6.13;;;2.65;;
64915;SDS011;51427;-27.442;153.014;2024-02-23T01:51:56;3.33;;;2.33;;
64915;SDS011;51427;-27.442;153.014;2024-02-23T01:54:24;5.25;;;2.20;;
64915;SDS011;51427;-27.442;153.014;2024-02-23T01:56:51;3.40;;;2.50;;
64915;SDS011;51427;-27.442;153.014;2024-02-23T01:59:19;2.78;;;2.22;;
64915;SDS011;51427;-27.442;153.014;2024-02-23T02:01:46;2.58;;;2.38;;
64915;SDS011;51427;-27.442;153.014;2024-02-23T02:04:13;4.65;;;2.60;;
64915;SDS011;51427;-27.442;153.014;2024-02-23T02:06:41;2.83;;;2.45;;
64915;SDS011;51427;-27.442;153.014;2024-02-23T02:09:09;3.88;;;2.53;;
64915;SDS011;51427;-27.442;153.014;2024-02-23T02:11:44;3.35;;;2.40;;
64915;SDS011;51427;-27.442;153.014;2024-02-23T02:14:12;4.72;;;2.80;;
64915;SDS011;51427;-27.442;153.014;2024-02-23T02:16:40;3.70;;;2.20;;
64915;SDS011;51427;-27.442;153.014;2024-02-23T02:19:09;2.75;;;2.08;;
64915;SDS011;51427;-27.442;153.014;2024-02-23T02:21:37;4.38;;;2.38;;
64915;SDS011;51427;-27.442;153.014;2024-02-23T02:24:05;4.38;;;2.30;;
64915;SDS011;51427;-27.442;153.014;2024-02-23T02:26:34;4.15;;;2.60;;
64915;SDS011;51427;-27.442;153.014;2024-02-23T02:29:03;3.55;;;2.63;;
64915;SDS011;51427;-27.442;153.014;2024-02-23T02:31:30;5.13;;;2.50;;
64915;SDS011;51427;-27.442;153.014;2024-02-23T02:34:03;5.22;;;2.60;;
64915;SDS011;51427;-27.442;153.014;2024-02-23T02:36:30;11.82;;;2.90;;
64915;SDS011;51427;-27.442;153.014;2024-02-23T02:38:58;7.88;;;2.95;;
64915;SDS011;51427;-27.442;153.014;2024-02-23T02:41:27;4.00;;;2.45;;
64915;SDS011;51427;-27.442;153.014;2024-02-23T02:43:56;5.15;;;2.50;;
64915;SDS011;51427;-27.442;153.014;2024-02-23T02:46:23;4.30;;;2.80;;
64915;SDS011;51427;-27.442;153.014;2024-02-23T02:48:50;4.60;;;2.55;;
64915;SDS011;51427;-27.442;153.014;2024-02-23T02:51:18;5.00;;;2.60;;
64915;SDS011;51427;-27.442;153.014;2024-02-23T02:53:45;6.28;;;2.97;;
64915;SDS011;51427;-27.442;153.014;2024-02-23T02:56:12;4.63;;;2.40;;
64915;SDS011;51427;-27.442;153.014;2024-02-23T02:58:39;2.60;;;2.40;;
64915;SDS011;51427;-27.442;153.014;2024-02-23T03:01:07;9.50;;;3.60;;
64915;SDS011;51427;-27.442;153.014;2024-02-23T03:03:34;2.55;;;2.30;;
64915;SDS011;51427;-27.442;153.014;2024-02-23T03:06:02;4.75;;;2.60;;
64915;SDS011;51427;-27.442;153.014;2024-02-23T03:08:31;3.65;;;2.50;;
64915;SDS011;51427;-27.442;153.014;2024-02-23T03:10:59;4.47;;;2.60;;
64915;SDS011;51427;-27.442;153.014;2024-02-23T03:13:26;4.80;;;2.47;;
64915;SDS011;51427;-27.442;153.014;2024-02-23T03:15:53;3.83;;;1.88;;
64915;SDS011;51427;-27.442;153.014;2024-02-23T03:18:21;5.22;;;1.80;;
64915;SDS011;51427;-27.442;153.014;2024-02-23T03:20:48;3.63;;;1.88;;
64915;SDS011;51427;-27.442;153.014;2024-02-23T03:23:15;5.68;;;2.10;;
64915;SDS011;51427;-27.442;153.014;2024-02-23T03:25:43;3.15;;;1.50;;
64915;SDS011;51427;-27.442;153.014;2024-02-23T03:28:10;6.00;;;2.25;;
64915;SDS011;51427;-27.442;153.014;2024-02-23T03:30:37;3.95;;;2.05;;
64915;SDS011;51427;-27.442;153.014;2024-02-23T03:33:04;5.53;;;2.28;;
64915;SDS011;51427;-27.442;153.014;2024-02-23T03:35:32;2.60;;;1.90;;
64915;SDS011;51427;-27.442;153.014;2024-02-23T03:37:59;3.30;;;1.83;;
64915;SDS011;51427;-27.442;153.014;2024-02-23T03:40:26;4.00;;;1.80;;
64915;SDS011;51427;-27.442;153.014;2024-02-23T03:42:53;4.28;;;1.70;;
64915;SDS011;51427;-27.442;153.014;2024-02-23T03:45:21;2.97;;;1.50;;
64915;SDS011;51427;-27.442;153.014;2024-02-23T03:47:48;3.15;;;2.03;;
64915;SDS011;51427;-27.442;153.014;2024-02-23T03:50:16;4.40;;;1.80;;
64915;SDS011;51427;-27.442;153.014;2024-02-23T03:52:43;5.38;;;1.85;;
64915;SDS011;51427;-27.442;153.014;2024-02-23T03:55:10;3.85;;;1.90;;
64915;SDS011;51427;-27.442;153.014;2024-02-23T03:57:37;2.95;;;1.58;;
64915;SDS011;51427;-27.442;153.014;2024-02-23T04:00:05;3.17;;;1.50;;
64915;SDS011;51427;-27.442;153.014;2024-02-23T04:02:34;7.07;;;1.80;;
64915;SDS011;51427;-27.442;153.014;2024-02-23T04:05:01;3.60;;;1.63;;
64915;SDS011;51427;-27.442;153.014;2024-02-23T04:07:28;2.85;;;1.67;;
64915;SDS011;51427;-27.442;153.014;2024-02-23T04:09:56;3.90;;;1.65;;
64915;SDS011;51427;-27.442;153.014;2024-02-23T04:12:23;4.00;;;1.33;;
64915;SDS011;51427;-27.442;153.014;2024-02-23T04:14:50;2.63;;;1.60;;
64915;SDS011;51427;-27.442;153.014;2024-02-23T04:17:18;4.25;;;1.58;;
64915;SDS011;51427;-27.442;153.014;2024-02-23T04:19:45;4.47;;;1.77;;
64915;SDS011;51427;-27.442;153.014;2024-02-23T04:22:12;4.85;;;1.60;;
64915;SDS011;51427;-27.442;153.014;2024-02-23T04:24:40;2.55;;;1.42;;
64915;SDS011;51427;-27.442;153.014;2024-02-23T04:27:08;2.45;;;1.45;;
64915;SDS011;51427;-27.442;153.014;2024-02-23T04:29:35;2.05;;;1.50;;
64915;SDS011;51427;-27.442;153.014;2024-02-23T04:32:02;2.67;;;1.35;;
64915;SDS011;51427;-27.442;153.014;2024-02-23T04:34:30;2.92;;;1.23;;
64915;SDS011;51427;-27.442;153.014;2024-02-23T04:36:58;8.98;;;1.58;;
64915;SDS011;51427;-27.442;153.014;2024-02-23T04:39:25;2.03;;;1.40;;
64915;SDS011;51427;-27.442;153.014;2024-02-23T04:41:52;3.70;;;1.50;;
64915;SDS011;51427;-27.442;153.014;2024-02-23T04:44:20;3.40;;;1.55;;
64915;SDS011;51427;-27.442;153.014;2024-02-23T04:46:47;2.90;;;1.23;;
64915;SDS011;51427;-27.442;153.014;2024-02-23T04:49:14;4.30;;;1.85;;
64915;SDS011;51427;-27.442;153.014;2024-02-23T04:51:42;4.55;;;1.33;;
64915;SDS011;51427;-27.442;153.014;2024-02-23T04:54:09;5.82;;;1.70;;
64915;SDS011;51427;-27.442;153.014;2024-02-23T04:56:36;2.47;;;1.60;;
64915;SDS011;51427;-27.442;153.014;2024-02-23T04:59:04;4.78;;;1.70;;
64915;SDS011;51427;-27.442;153.014;2024-02-23T05:01:34;3.83;;;1.35;;
64915;SDS011;51427;-27.442;153.014;2024-02-23T05:04:03;3.88;;;1.58;;
64915;SDS011;51427;-27.442;153.014;2024-02-23T05:06:30;2.88;;;1.13;;
64915;SDS011;51427;-27.442;153.014;2024-02-23T05:08:58;3.55;;;1.20;;
64915;SDS011;51427;-27.442;153.014;2024-02-23T05:11:25;5.32;;;1.55;;
64915;SDS011;51427;-27.442;153.014;2024-02-23T05:13:52;3.30;;;1.55;;
64915;SDS011;51427;-27.442;153.014;2024-02-23T05:16:19;3.40;;;1.52;;
64915;SDS011;51427;-27.442;153.014;2024-02-23T05:18:47;4.60;;;1.50;;
64915;SDS011;51427;-27.442;153.014;2024-02-23T05:21:14;3.95;;;1.40;;
64915;SDS011;51427;-27.442;153.014;2024-02-23T05:23:42;3.92;;;1.77;;
64915;SDS011;51427;-27.442;153.014;2024-02-23T05:26:09;2.63;;;1.50;;
64915;SDS011;51427;-27.442;153.014;2024-02-23T05:28:36;1.73;;;1.40;;
64915;SDS011;51427;-27.442;153.014;2024-02-23T05:31:04;3.22;;;1.55;;
64915;SDS011;51427;-27.442;153.014;2024-02-23T05:33:31;4.00;;;1.50;;
64915;SDS011;51427;-27.442;153.014;2024-02-23T05:35:58;5.97;;;1.40;;
64915;SDS011;51427;-27.442;153.014;2024-02-23T05:38:26;4.00;;;1.50;;
64915;SDS011;51427;-27.442;153.014;2024-02-23T05:40:53;4.65;;;1.65;;
64915;SDS011;51427;-27.442;153.014;2024-02-23T05:43:20;4.93;;;1.73;;
64915;SDS011;51427;-27.442;153.014;2024-02-23T05:45:48;4.75;;;1.45;;
64915;SDS011;51427;-27.442;153.014;2024-02-23T05:48:15;3.78;;;1.58;;
64915;SDS011;51427;-27.442;153.014;2024-02-23T05:50:44;3.05;;;1.63;;
64915;SDS011;51427;-27.442;153.014;2024-02-23T05:53:11;4.13;;;1.55;;
64915;SDS011;51427;-27.442;153.014;2024-02-23T05:55:39;4.32;;;1.40;;
64915;SDS011;51427;-27.442;153.014;2024-02-23T05:58:06;1.38;;;1.27;;
64915;SDS011;51427;-27.442;153.014;2024-02-23T06:00:34;1.88;;;1.20;;
64915;SDS011;51427;-27.442;153.014;2024-02-23T06:03:01;4.05;;;1.35;;
64915;SDS011;51427;-27.442;153.014;2024-02-23T06:05:29;5.20;;;1.50;;
64915;SDS011;51427;-27.442;153.014;2024-02-23T06:07:56;3.92;;;1.45;;
64915;SDS011;51427;-27.442;153.014;2024-02-23T06:10:23;4.38;;;1.45;;
64915;SDS011;51427;-27.442;153.014;2024-02-23T06:12:51;4.32;;;1.50;;
64915;SDS011;51427;-27.442;153.014;2024-02-23T06:15:19;2.15;;;1.45;;
64915;SDS011;51427;-27.442;153.014;2024-02-23T06:17:46;3.97;;;1.60;;
64915;SDS011;51427;-27.442;153.014;2024-02-23T06:20:14;4.05;;;1.50;;
64915;SDS011;51427;-27.442;153.014;2024-02-23T06:22:41;3.13;;;1.60;;
64915;SDS011;51427;-27.442;153.014;2024-02-23T06:25:09;3.80;;;1.30;;
64915;SDS011;51427;-27.442;153.014;2024-02-23T06:27:37;5.20;;;1.40;;
64915;SDS011;51427;-27.442;153.014;2024-02-23T06:30:08;1.88;;;1.38;;
64915;SDS011;51427;-27.442;153.014;2024-02-23T06:32:38;3.78;;;1.80;;
64915;SDS011;51427;-27.442;153.014;2024-02-23T06:35:05;2.70;;;1.45;;
64915;SDS011;51427;-27.442;153.014;2024-02-23T06:37:33;3.42;;;1.30;;
64915;SDS011;51427;-27.442;153.014;2024-02-23T06:40:02;4.40;;;1.20;;
64915;SDS011;51427;-27.442;153.014;2024-02-23T06:42:30;3.92;;;1.50;;
64915;SDS011;51427;-27.442;153.014;2024-02-23T06:45:18;3.33;;;1.27;;
64915;SDS011;51427;-27.442;153.014;2024-02-23T06:47:45;2.20;;;1.50;;
64915;SDS011;51427;-27.442;153.014;2024-02-23T06:50:12;4.70;;;1.40;;
64915;SDS011;51427;-27.442;153.014;2024-02-23T06:52:39;2.88;;;1.35;;
64915;SDS011;51427;-27.442;153.014;2024-02-23T06:55:09;2.70;;;1.30;;
64915;SDS011;51427;-27.442;153.014;2024-02-23T06:57:37;3.63;;;1.67;;
64915;SDS011;51427;-27.442;153.014;2024-02-23T07:00:04;4.18;;;1.40;;
64915;SDS011;51427;-27.442;153.014;2024-02-23T07:02:33;4.18;;;1.67;;
64915;SDS011;51427;-27.442;153.014;2024-02-23T07:05:02;3.20;;;1.13;;
64915;SDS011;51427;-27.442;153.014;2024-02-23T07:07:32;2.65;;;1.35;;
64915;SDS011;51427;-27.442;153.014;2024-02-23T07:10:00;4.30;;;1.10;;
64915;SDS011;51427;-27.442;153.014;2024-02-23T07:12:28;4.53;;;1.52;;
64915;SDS011;51427;-27.442;153.014;2024-02-23T07:14:55;3.53;;;1.35;;
64915;SDS011;51427;-27.442;153.014;2024-02-23T07:17:23;3.50;;;1.30;;
64915;SDS011;51427;-27.442;153.014;2024-02-23T07:19:51;2.40;;;1.20;;
64915;SDS011;51427;-27.442;153.014;2024-02-23T07:22:18;3.30;;;1.50;;
64915;SDS011;51427;-27.442;153.014;2024-02-23T07:24:49;3.78;;;1.30;;
64915;SDS011;51427;-27.442;153.014;2024-02-23T07:27:16;4.72;;;1.27;;
64915;SDS011;51427;-27.442;153.014;2024-02-23T07:29:44;3.38;;;1.17;;
64915;SDS011;51427;-27.442;153.014;2024-02-23T07:32:11;5.53;;;1.40;;
64915;SDS011;51427;-27.442;153.014;2024-02-23T07:34:38;4.20;;;1.13;;
64915;SDS011;51427;-27.442;153.014;2024-02-23T07:37:05;4.95;;;1.20;;
64915;SDS011;51427;-27.442;153.014;2024-02-23T07:39:33;6.38;;;1.52;;
64915;SDS011;51427;-27.442;153.014;2024-02-23T07:42:00;3.28;;;1.38;;
64915;SDS011;51427;-27.442;153.014;2024-02-23T07:44:32;6.63;;;1.23;;
64915;SDS011;51427;-27.442;153.014;2024-02-23T07:46:59;4.63;;;1.50;;
64915;SDS011;51427;-27.442;153.014;2024-02-23T07:49:26;4.72;;;1.15;;
64915;SDS011;51427;-27.442;153.014;2024-02-23T07:51:54;3.13;;;2.22;;
64915;SDS011;51427;-27.442;153.014;2024-02-23T07:54:21;4.63;;;1.70;;
64915;SDS011;51427;-27.442;153.014;2024-02-23T07:56:48;6.55;;;1.50;;
64915;SDS011;51427;-27.442;153.014;2024-02-23T07:59:18;4.25;;;1.42;;
64915;SDS011;51427;-27.442;153.014;2024-02-23T08:01:57;4.63;;;1.42;;
64915;SDS011;51427;-27.442;153.014;2024-02-23T08:04:24;4.68;;;1.30;;
64915;SDS011;51427;-27.442;153.014;2024-02-23T08:06:51;3.60;;;1.30;;
64915;SDS011;51427;-27.442;153.014;2024-02-23T08:09:19;5.45;;;1.40;;
64915;SDS011;51427;-27.442;153.014;2024-02-23T08:11:47;3.35;;;1.00;;
64915;SDS011;51427;-27.442;153.014;2024-02-23T08:14:21;3.65;;;1.20;;
64915;SDS011;51427;-27.442;153.014;2024-02-23T08:16:48;4.05;;;1.45;;
64915;SDS011;51427;-27.442;153.014;2024-02-23T08:19:16;2.47;;;1.05;;
64915;SDS011;51427;-27.442;153.014;2024-02-23T08:21:43;2.97;;;0.90;;
64915;SDS011;51427;-27.442;153.014;2024-02-23T08:24:10;2.97;;;1.50;;
64915;SDS011;51427;-27.442;153.014;2024-02-23T08:26:37;2.83;;;1.25;;
64915;SDS011;51427;-27.442;153.014;2024-02-23T08:29:06;8.23;;;1.67;;
64915;SDS011;51427;-27.442;153.014;2024-02-23T08:31:34;4.70;;;1.17;;
64915;SDS011;51427;-27.442;153.014;2024-02-23T08:34:01;2.75;;;1.23;;
64915;SDS011;51427;-27.442;153.014;2024-02-23T08:36:29;1.15;;;1.00;;
64915;SDS011;51427;-27.442;153.014;2024-02-23T08:38:56;5.10;;;1.42;;
64915;SDS011;51427;-27.442;153.014;2024-02-23T08:41:23;4.38;;;1.45;;
64915;SDS011;51427;-27.442;153.014;2024-02-23T08:43:50;4.47;;;1.48;;
64915;SDS011;51427;-27.442;153.014;2024-02-23T08:46:18;4.45;;;1.40;;
64915;SDS011;51427;-27.442;153.014;2024-02-23T08:48:46;3.63;;;1.40;;
64915;SDS011;51427;-27.442;153.014;2024-02-23T08:51:13;5.40;;;1.05;;
64915;SDS011;51427;-27.442;153.014;2024-02-23T08:53:40;2.03;;;1.15;;
64915;SDS011;51427;-27.442;153.014;2024-02-23T08:56:08;5.30;;;1.23;;
64915;SDS011;51427;-27.442;153.014;2024-02-23T08:58:37;2.97;;;1.35;;
64915;SDS011;51427;-27.442;153.014;2024-02-23T09:01:04;3.53;;;1.40;;
64915;SDS011;51427;-27.442;153.014;2024-02-23T09:03:32;4.35;;;1.15;;
64915;SDS011;51427;-27.442;153.014;2024-02-23T09:05:59;3.42;;;1.58;;
64915;SDS011;51427;-27.442;153.014;2024-02-23T09:08:26;2.65;;;1.30;;
64915;SDS011;51427;-27.442;153.014;2024-02-23T09:10:54;6.78;;;1.67;;
64915;SDS011;51427;-27.442;153.014;2024-02-23T09:13:21;2.72;;;1.10;;
64915;SDS011;51427;-27.442;153.014;2024-02-23T09:15:48;4.85;;;1.20;;
64915;SDS011;51427;-27.442;153.014;2024-02-23T09:18:16;2.80;;;1.05;;
64915;SDS011;51427;-27.442;153.014;2024-02-23T09:20:44;5.20;;;1.50;;
64915;SDS011;51427;-27.442;153.014;2024-02-23T09:23:11;3.55;;;1.20;;
64915;SDS011;51427;-27.442;153.014;2024-02-23T09:25:39;4.53;;;1.40;;
64915;SDS011;51427;-27.442;153.014;2024-02-23T09:28:07;5.53;;;1.75;;
64915;SDS011;51427;-27.442;153.014;2024-02-23T09:30:37;4.70;;;1.42;;
64915;SDS011;51427;-27.442;153.014;2024-02-23T09:33:04;4.78;;;1.40;;
64915;SDS011;51427;-27.442;153.014;2024-02-23T09:35:31;4.88;;;1.40;;
64915;SDS011;51427;-27.442;153.014;2024-02-23T09:37:59;3.10;;;1.33;;
64915;SDS011;51427;-27.442;153.014;2024-02-23T09:40:26;5.93;;;1.33;;
64915;SDS011;51427;-27.442;153.014;2024-02-23T09:42:57;2.47;;;1.15;;
64915;SDS011;51427;-27.442;153.014;2024-02-23T09:45:25;3.45;;;1.33;;
64915;SDS011;51427;-27.442;153.014;2024-02-23T09:47:55;5.32;;;1.17;;
64915;SDS011;51427;-27.442;153.014;2024-02-23T09:50:24;4.10;;;1.00;;
64915;SDS011;51427;-27.442;153.014;2024-02-23T09:52:54;2.63;;;1.42;;
64915;SDS011;51427;-27.442;153.014;2024-02-23T09:55:24;3.20;;;1.17;;
64915;SDS011;51427;-27.442;153.014;2024-02-23T09:57:58;2.03;;;0.82;;
64915;SDS011;51427;-27.442;153.014;2024-02-23T10:00:25;3.17;;;1.30;;
64915;SDS011;51427;-27.442;153.014;2024-02-23T10:02:54;3.17;;;1.30;;
64915;SDS011;51427;-27.442;153.014;2024-02-23T10:05:28;3.80;;;1.25;;
64915;SDS011;51427;-27.442;153.014;2024-02-23T10:07:57;4.10;;;1.60;;
64915;SDS011;51427;-27.442;153.014;2024-02-23T10:10:34;3.83;;;1.33;;
64915;SDS011;51427;-27.442;153.014;2024-02-23T10:13:01;5.43;;;1.60;;
64915;SDS011;51427;-27.442;153.014;2024-02-23T10:15:32;4.07;;;1.13;;
64915;SDS011;51427;-27.442;153.014;2024-02-23T10:17:59;4.43;;;1.35;;
64915;SDS011;51427;-27.442;153.014;2024-02-23T10:20:26;4.53;;;1.35;;
64915;SDS011;51427;-27.442;153.014;2024-02-23T10:22:54;3.67;;;1.27;;
64915;SDS011;51427;-27.442;153.014;2024-02-23T10:25:21;5.75;;;1.35;;
64915;SDS011;51427;-27.442;153.014;2024-02-23T10:27:49;7.97;;;1.73;;
64915;SDS011;51427;-27.442;153.014;2024-02-23T10:30:16;6.65;;;1.85;;
64915;SDS011;51427;-27.442;153.014;2024-02-23T10:32:43;2.40;;;1.10;;
64915;SDS011;51427;-27.442;153.014;2024-02-23T10:35:16;3.15;;;1.50;;
64915;SDS011;51427;-27.442;153.014;2024-02-23T10:37:44;4.03;;;1.30;;
64915;SDS011;51427;-27.442;153.014;2024-02-23T10:40:16;3.20;;;1.20;;
64915;SDS011;51427;-27.442;153.014;2024-02-23T10:42:49;3.25;;;1.20;;
64915;SDS011;51427;-27.442;153.014;2024-02-23T10:45:19;4.57;;;1.42;;
64915;SDS011;51427;-27.442;153.014;2024-02-23T10:47:47;6.47;;;2.08;;
64915;SDS011;51427;-27.442;153.014;2024-02-23T10:50:16;3.55;;;1.50;;
64915;SDS011;51427;-27.442;153.014;2024-02-23T10:52:45;5.13;;;1.35;;
64915;SDS011;51427;-27.442;153.014;2024-02-23T10:55:14;4.03;;;1.50;;
64915;SDS011;51427;-27.442;153.014;2024-02-23T10:57:42;4.63;;;1.33;;
64915;SDS011;51427;-27.442;153.014;2024-02-23T11:00:10;1.65;;;1.08;;
64915;SDS011;51427;-27.442;153.014;2024-02-23T11:02:47;5.22;;;1.90;;
64915;SDS011;51427;-27.442;153.014;2024-02-23T11:05:17;3.65;;;1.10;;
64915;SDS011;51427;-27.442;153.014;2024-02-23T11:07:48;5.25;;;1.20;;
64915;SDS011;51427;-27.442;153.014;2024-02-23T11:10:17;4.47;;;1.40;;
64915;SDS011;51427;-27.442;153.014;2024-02-23T11:12:56;3.28;;;1.33;;
64915;SDS011;51427;-27.442;153.014;2024-02-23T11:15:28;6.20;;;1.60;;
64915;SDS011;51427;-27.442;153.014;2024-02-23T11:18:00;3.88;;;1.15;;
64915;SDS011;51427;-27.442;153.014;2024-02-23T11:20:34;3.17;;;1.45;;
64915;SDS011;51427;-27.442;153.014;2024-02-23T11:23:12;3.70;;;1.42;;
64915;SDS011;51427;-27.442;153.014;2024-02-23T11:25:41;4.10;;;1.20;;
64915;SDS011;51427;-27.442;153.014;2024-02-23T11:28:08;4.25;;;1.55;;
64915;SDS011;51427;-27.442;153.014;2024-02-23T11:30:35;5.57;;;1.50;;
64915;SDS011;51427;-27.442;153.014;2024-02-23T11:33:03;3.85;;;1.20;;
64915;SDS011;51427;-27.442;153.014;2024-02-23T11:35:34;5.15;;;1.30;;
64915;SDS011;51427;-27.442;153.014;2024-02-23T11:38:01;4.85;;;1.33;;
64915;SDS011;51427;-27.442;153.014;2024-02-23T11:40:32;5.85;;;1.35;;
64915;SDS011;51427;-27.442;153.014;2024-02-23T11:42:59;4.65;;;1.40;;
64915;SDS011;51427;-27.442;153.014;2024-02-23T11:45:30;3.92;;;1.38;;
64915;SDS011;51427;-27.442;153.014;2024-02-23T11:47:58;6.68;;;1.20;;
64915;SDS011;51427;-27.442;153.014;2024-02-23T11:50:25;3.13;;;1.13;;
64915;SDS011;51427;-27.442;153.014;2024-02-23T11:52:52;3.33;;;1.42;;
64915;SDS011;51427;-27.442;153.014;2024-02-23T11:55:20;3.08;;;1.17;;
64915;SDS011;51427;-27.442;153.014;2024-02-23T11:57:48;6.28;;;1.65;;
64915;SDS011;51427;-27.442;153.014;2024-02-23T12:00:16;4.35;;;1.48;;
64915;SDS011;51427;-27.442;153.014;2024-02-23T12:02:44;4.30;;;1.17;;
64915;SDS011;51427;-27.442;153.014;2024-02-23T12:05:14;8.63;;;1.35;;
64915;SDS011;51427;-27.442;153.014;2024-02-23T12:10:09;4.55;;;1.33;;
64915;SDS011;51427;-27.442;153.014;2024-02-23T12:12:36;7.38;;;1.35;;
64915;SDS011;51427;-27.442;153.014;2024-02-23T12:15:04;2.00;;;1.20;;
64915;SDS011;51427;-27.442;153.014;2024-02-23T12:17:36;3.25;;;1.10;;
64915;SDS011;51427;-27.442;153.014;2024-02-23T12:20:12;5.57;;;1.60;;
64915;SDS011;51427;-27.442;153.014;2024-02-23T12:22:42;3.83;;;1.48;;
64915;SDS011;51427;-27.442;153.014;2024-02-23T12:25:11;4.30;;;1.60;;
64915;SDS011;51427;-27.442;153.014;2024-02-23T12:27:39;5.88;;;1.50;;
64915;SDS011;51427;-27.442;153.014;2024-02-23T12:30:12;6.72;;;1.70;;
64915;SDS011;51427;-27.442;153.014;2024-02-23T12:32:41;2.55;;;1.33;;
64915;SDS011;51427;-27.442;153.014;2024-02-23T12:35:10;4.65;;;1.58;;
64915;SDS011;51427;-27.442;153.014;2024-02-23T12:37:38;5.85;;;1.58;;
64915;SDS011;51427;-27.442;153.014;2024-02-23T12:40:06;8.32;;;1.63;;
64915;SDS011;51427;-27.442;153.014;2024-02-23T12:42:34;4.55;;;1.50;;
64915;SDS011;51427;-27.442;153.014;2024-02-23T12:45:02;7.03;;;1.83;;
64915;SDS011;51427;-27.442;153.014;2024-02-23T12:47:29;9.55;;;2.08;;
64915;SDS011;51427;-27.442;153.014;2024-02-23T12:49:56;3.10;;;1.33;;
64915;SDS011;51427;-27.442;153.014;2024-02-23T12:52:24;5.18;;;1.65;;
64915;SDS011;51427;-27.442;153.014;2024-02-23T12:54:51;4.97;;;1.42;;
64915;SDS011;51427;-27.442;153.014;2024-02-23T12:57:18;6.38;;;1.50;;
64915;SDS011;51427;-27.442;153.014;2024-02-23T12:59:46;6.28;;;1.63;;
64915;SDS011;51427;-27.442;153.014;2024-02-23T13:02:13;4.95;;;1.55;;
64915;SDS011;51427;-27.442;153.014;2024-02-23T13:04:40;6.50;;;1.60;;
64915;SDS011;51427;-27.442;153.014;2024-02-23T13:07:12;4.35;;;1.52;;
64915;SDS011;51427;-27.442;153.014;2024-02-23T13:09:39;5.55;;;1.70;;
64915;SDS011;51427;-27.442;153.014;2024-02-23T13:12:06;2.83;;;1.27;;
64915;SDS011;51427;-27.442;153.014;2024-02-23T13:14:34;4.20;;;1.65;;
64915;SDS011;51427;-27.442;153.014;2024-02-23T13:17:01;4.82;;;1.38;;
64915;SDS011;51427;-27.442;153.014;2024-02-23T13:19:29;5.32;;;1.73;;
64915;SDS011;51427;-27.442;153.014;2024-02-23T13:21:56;8.20;;;2.00;;
64915;SDS011;51427;-27.442;153.014;2024-02-23T13:24:26;6.57;;;1.70;;
64915;SDS011;51427;-27.442;153.014;2024-02-23T13:26:53;3.47;;;1.65;;
64915;SDS011;51427;-27.442;153.014;2024-02-23T13:29:21;10.13;;;2.25;;
64915;SDS011;51427;-27.442;153.014;2024-02-23T13:31:48;3.10;;;1.45;;
64915;SDS011;51427;-27.442;153.014;2024-02-23T13:34:15;5.95;;;1.40;;
64915;SDS011;51427;-27.442;153.014;2024-02-23T13:36:43;4.97;;;1.60;;
64915;SDS011;51427;-27.442;153.014;2024-02-23T13:39:11;6.15;;;2.30;;
64915;SDS011;51427;-27.442;153.014;2024-02-23T13:41:38;6.07;;;1.80;;
64915;SDS011;51427;-27.442;153.014;2024-02-23T13:44:06;4.82;;;2.00;;
64915;SDS011;51427;-27.442;153.014;2024-02-23T13:46:39;4.40;;;1.60;;
64915;SDS011;51427;-27.442;153.014;2024-02-23T13:49:07;5.55;;;1.75;;
64915;SDS011;51427;-27.442;153.014;2024-02-23T13:51:35;4.80;;;1.92;;
64915;SDS011;51427;-27.442;153.014;2024-02-23T13:54:03;4.53;;;1.52;;
64915;SDS011;51427;-27.442;153.014;2024-02-23T13:56:30;5.38;;;1.80;;
64915;SDS011;51427;-27.442;153.014;2024-02-23T13:58:57;2.78;;;1.67;;
64915;SDS011;51427;-27.442;153.014;2024-02-23T14:01:25;5.57;;;1.58;;
64915;SDS011;51427;-27.442;153.014;2024-02-23T14:03:53;4.05;;;1.80;;
64915;SDS011;51427;-27.442;153.014;2024-02-23T14:06:20;4.57;;;1.55;;
64915;SDS011;51427;-27.442;153.014;2024-02-23T14:08:47;5.45;;;1.77;;
64915;SDS011;51427;-27.442;153.014;2024-02-23T14:11:14;5.05;;;1.90;;
64915;SDS011;51427;-27.442;153.014;2024-02-23T14:13:42;7.53;;;2.33;;
64915;SDS011;51427;-27.442;153.014;2024-02-23T14:16:10;6.63;;;2.20;;